createdAt,value
2022-11-29T00:00:11.749Z,18.10
2022-11-29T00:04:14.711Z,18.50
2022-11-29T00:08:17.419Z,20.47
2022-11-29T00:12:21.455Z,18.53
2022-11-29T00:16:24.141Z,16.63
2022-11-29T00:20:26.768Z,19.60
2022-11-29T00:24:31.560Z,16.30
2022-11-29T00:28:36.635Z,16.87
2022-11-29T00:32:39.598Z,16.33
2022-11-29T00:36:42.413Z,16.57
2022-11-29T00:40:45.256Z,19.30
2022-11-29T00:44:49.617Z,16.67
2022-11-29T00:48:52.289Z,17.53
2022-11-29T00:52:54.987Z,16.57
2022-11-29T00:56:57.665Z,16.47
2022-11-29T01:01:01.738Z,16.67
2022-11-29T01:05:04.931Z,15.70
2022-11-29T01:09:07.592Z,17.63
2022-11-29T01:13:11.036Z,18.20
2022-11-29T01:17:15.403Z,18.43
2022-11-29T01:21:20.759Z,18.60
2022-11-29T01:25:23.387Z,17.87
2022-11-29T01:29:26.093Z,17.87
2022-11-29T01:33:30.106Z,17.10
2022-11-29T01:37:33.140Z,17.97
2022-11-29T01:41:37.126Z,18.30
2022-11-29T01:45:40.556Z,19.00
2022-11-29T01:49:46.711Z,17.67
2022-11-29T01:53:49.785Z,17.73
2022-11-29T01:57:52.857Z,17.87
2022-11-29T02:01:58.514Z,17.63
2022-11-29T02:06:02.721Z,17.47
2022-11-29T02:10:07.050Z,17.13
2022-11-29T02:14:21.242Z,17.00
2022-11-29T02:18:30.341Z,18.07
2022-11-29T02:22:37.932Z,17.53
2022-11-29T02:27:16.392Z,17.70
2022-11-29T02:31:50.742Z,18.37
2022-11-29T02:36:36.419Z,17.57
2022-11-29T02:40:54.716Z,17.67
2022-11-29T02:45:09.242Z,18.10
2022-11-29T02:49:16.391Z,17.03
2022-11-29T02:53:25.828Z,17.30
2022-11-29T02:57:34.753Z,17.30
2022-11-29T03:01:42.911Z,18.17
2022-11-29T03:05:51.416Z,16.90
2022-11-29T03:10:01.330Z,17.73
2022-11-29T03:14:15.482Z,17.00
2022-11-29T03:18:35.132Z,17.13
2022-11-29T03:22:44.093Z,17.70
2022-11-29T03:26:51.086Z,18.33
2022-11-29T03:30:59.470Z,18.73
2022-11-29T03:35:06.747Z,18.07
2022-11-29T03:39:16.672Z,18.20
2022-11-29T03:43:24.919Z,18.27
2022-11-29T03:47:31.645Z,16.63
2022-11-29T03:51:49.956Z,16.23
2022-11-29T03:55:55.331Z,17.97
2022-11-29T04:00:04.962Z,17.10
2022-11-29T04:04:42.202Z,16.13
2022-11-29T04:08:58.699Z,16.67
2022-11-29T04:13:57.597Z,18.07
2022-11-29T04:18:19.367Z,16.70
2022-11-29T04:22:30.206Z,17.87
2022-11-29T04:26:54.282Z,17.00
2022-11-29T04:31:01.660Z,16.43
2022-11-29T04:35:30.615Z,18.10
2022-11-29T04:39:50.960Z,16.07
2022-11-29T04:44:06.433Z,16.67
2022-11-29T04:48:27.832Z,17.07
2022-11-29T04:52:44.545Z,17.20
2022-11-29T04:56:51.366Z,16.33
2022-11-29T05:01:01.255Z,16.30
2022-11-29T05:05:12.455Z,19.10
2022-11-29T05:09:23.311Z,16.90
2022-11-29T05:13:30.120Z,16.67
2022-11-29T05:17:36.735Z,16.60
2022-11-29T05:21:47.086Z,16.37
2022-11-29T05:25:56.441Z,16.83
2022-11-29T05:30:04.592Z,16.90
2022-11-29T05:34:23.082Z,16.40
2022-11-29T05:38:39.584Z,16.27
2022-11-29T05:42:55.965Z,16.57
2022-11-29T05:47:00.592Z,16.30
2022-11-29T05:51:12.975Z,16.93
2022-11-29T05:55:26.341Z,18.07
2022-11-29T05:59:31.522Z,16.67
2022-11-29T06:03:38.491Z,17.30
2022-11-29T06:07:45.542Z,16.27
2022-11-29T06:11:50.227Z,17.20
2022-11-29T06:16:20.122Z,17.63
2022-11-29T06:20:35.227Z,16.60
2022-11-29T06:24:50.490Z,17.07
2022-11-29T06:29:01.627Z,16.40
2022-11-29T06:33:11.606Z,15.80
2022-11-29T06:37:17.177Z,18.53
2022-11-29T06:41:21.958Z,17.03
2022-11-29T06:45:25.203Z,16.80
2022-11-29T06:49:31.127Z,17.40
2022-11-29T06:53:40.185Z,17.67
2022-11-29T06:57:53.624Z,18.67
2022-11-29T07:02:02.755Z,18.83
2022-11-29T07:06:13.690Z,19.60
2022-11-29T07:10:18.186Z,16.73
2022-11-29T07:14:21.463Z,18.00
2022-11-29T07:18:29.333Z,18.90
2022-11-29T07:22:46.397Z,18.53
2022-11-29T07:26:59.450Z,18.90
2022-11-29T07:31:07.659Z,19.73
2022-11-29T07:35:16.561Z,18.83
2022-11-29T07:39:26.291Z,18.50
2022-11-29T07:43:36.877Z,19.03
2022-11-29T07:47:39.570Z,19.40
2022-11-29T07:51:42.450Z,19.23
2022-11-29T07:55:48.124Z,19.97
2022-11-29T07:59:50.755Z,17.90
2022-11-29T08:03:53.468Z,19.20
2022-11-29T08:07:56.751Z,19.00
2022-11-29T08:12:00.804Z,18.10
2022-11-29T08:16:03.519Z,17.80
2022-11-29T08:20:07.860Z,16.90
2022-11-29T08:24:10.814Z,17.90
2022-11-29T08:28:15.124Z,19.77
2022-11-29T08:32:18.411Z,18.20
2022-11-29T08:36:21.422Z,18.23
2022-11-29T08:40:24.887Z,19.80
2022-11-29T08:44:28.962Z,17.80
2022-11-29T08:48:32.061Z,18.60
2022-11-29T08:52:53.752Z,19.53
2022-11-29T09:01:21.233Z,17.53
2022-11-29T09:05:24.232Z,18.80
2022-11-29T09:09:27.333Z,18.37
2022-11-29T09:13:29.964Z,18.47
2022-11-29T09:17:34.043Z,17.60
2022-11-29T09:21:39.759Z,18.73
2022-11-29T09:25:42.416Z,19.63
2022-11-29T09:29:45.328Z,17.40
2022-11-29T09:33:49.538Z,18.97
2022-11-29T09:37:52.597Z,21.70
2022-11-29T09:42:27.146Z,23.27
2022-11-29T09:46:36.358Z,18.57
2022-11-29T09:50:45.158Z,31.67
2022-11-29T09:54:53.544Z,18.77
2022-11-29T09:58:59.175Z,19.03
2022-11-29T10:03:04.433Z,18.90
2022-11-29T10:07:12.643Z,19.83
2022-11-29T10:11:22.512Z,19.77
2022-11-29T10:15:28.445Z,21.57
2022-11-29T10:19:33.714Z,19.70
2022-11-29T10:23:42.192Z,19.17
2022-11-29T10:27:45.016Z,19.90
2022-11-29T10:31:49.425Z,20.40
2022-11-29T10:35:54.026Z,21.13
2022-11-29T10:40:04.132Z,17.37
2022-11-29T10:44:07.087Z,15.90
2022-11-29T10:48:13.210Z,17.13
2022-11-29T10:52:20.074Z,16.97
2022-11-29T10:56:29.331Z,18.47
2022-11-29T11:00:32.178Z,17.07
2022-11-29T11:04:37.418Z,17.43
2022-11-29T11:08:43.277Z,17.60
2022-11-29T11:13:02.289Z,14.80
2022-11-29T11:17:23.502Z,16.30
2022-11-29T11:21:29.284Z,15.67
2022-11-29T11:25:34.580Z,16.20
2022-11-29T11:29:40.732Z,15.70
2022-11-29T11:33:44.237Z,15.80
2022-11-29T11:37:56.967Z,16.37
2022-11-29T11:42:17.248Z,14.17
2022-11-29T11:46:21.397Z,15.97
2022-11-29T11:50:30.224Z,14.53
2022-11-29T11:54:33.271Z,14.37
2022-11-29T11:58:38.871Z,16.57
2022-11-29T12:02:45.403Z,14.00
2022-11-29T12:06:52.782Z,13.47
2022-11-29T12:11:01.551Z,14.87
2022-11-29T12:15:10.018Z,12.07
2022-11-29T12:19:19.115Z,15.97
2022-11-29T12:23:28.263Z,15.43
2022-11-29T12:27:31.780Z,15.30
2022-11-29T12:31:46.143Z,12.47
2022-11-29T12:36:09.782Z,13.03
2022-11-29T12:40:17.617Z,13.53
2022-11-29T12:44:29.895Z,13.57
2022-11-29T12:48:37.893Z,15.40
2022-11-29T12:52:48.196Z,13.10
2022-11-29T12:56:59.229Z,19.87
2022-11-29T13:01:07.452Z,32.63
2022-11-29T13:05:16.316Z,14.67
2022-11-29T13:09:50.487Z,16.00
2022-11-29T13:14:13.738Z,16.30
2022-11-29T13:18:25.061Z,14.13
2022-11-29T13:22:32.654Z,15.30
2022-11-29T13:26:38.775Z,15.30
2022-11-29T13:30:41.440Z,14.97
2022-11-29T13:34:46.684Z,15.23
2022-11-29T13:38:59.469Z,17.20
2022-11-29T13:43:10.240Z,14.50
2022-11-29T13:47:14.378Z,14.23
2022-11-29T13:51:26.030Z,13.60
2022-11-29T13:55:31.748Z,13.03
2022-11-29T13:59:41.576Z,14.57
2022-11-29T14:03:52.144Z,14.10
2022-11-29T14:08:26.417Z,13.77
2022-11-29T14:12:38.239Z,15.17
2022-11-29T14:16:48.666Z,14.80
2022-11-29T14:21:00.870Z,16.70
2022-11-29T14:25:49.592Z,14.50
2022-11-29T14:29:56.226Z,14.37
2022-11-29T14:34:06.865Z,14.83
2022-11-29T14:38:14.665Z,15.30
2022-11-29T14:42:20.023Z,16.37
2022-11-29T14:46:33.900Z,15.13
2022-11-29T14:50:39.774Z,16.20
2022-11-29T14:54:54.981Z,15.37
2022-11-29T14:59:31.989Z,15.37
2022-11-29T15:03:38.991Z,15.73
2022-11-29T15:07:46.056Z,15.50
2022-11-29T15:11:52.887Z,17.00
2022-11-29T15:16:15.287Z,15.37
2022-11-29T15:20:32.907Z,15.47
2022-11-29T15:29:21.321Z,15.43
2022-11-29T15:33:25.985Z,17.00
2022-11-29T15:37:42.646Z,16.97
2022-11-29T15:41:45.479Z,14.80
2022-11-29T15:45:50.583Z,17.33
2022-11-29T15:49:54.617Z,18.63
2022-11-29T15:54:12.371Z,15.83
2022-11-29T15:58:17.087Z,15.43
2022-11-29T16:02:22.682Z,18.63
2022-11-29T16:06:29.410Z,16.23
2022-11-29T16:10:35.966Z,17.77
2022-11-29T16:14:49.644Z,16.30
2022-11-29T16:18:53.665Z,16.77
2022-11-29T16:23:12.913Z,14.97
2022-11-29T16:27:15.936Z,17.60
2022-11-29T16:31:19.523Z,17.53
2022-11-29T16:35:27.543Z,16.73
2022-11-29T16:39:30.513Z,26.70
2022-11-29T16:43:55.267Z,28.10
2022-11-29T16:47:59.612Z,29.97
2022-11-29T16:52:05.342Z,27.73
2022-11-29T16:56:11.385Z,19.07
2022-11-29T17:00:24.038Z,17.37
2022-11-29T17:04:26.996Z,15.77
2022-11-29T17:08:31.638Z,15.53
2022-11-29T17:12:34.263Z,17.03
2022-11-29T17:16:37.031Z,15.00
2022-11-29T17:20:39.738Z,14.03
2022-11-29T17:24:47.923Z,16.63
2022-11-29T17:28:52.210Z,14.50
2022-11-29T17:32:54.982Z,14.67
2022-11-29T17:36:58.278Z,14.83
2022-11-29T17:41:07.167Z,14.57
2022-11-29T17:45:10.393Z,21.93
2022-11-29T17:49:13.204Z,20.10
2022-11-29T17:53:16.212Z,19.03
2022-11-29T17:57:20.187Z,18.10
2022-11-29T18:01:25.487Z,18.10
2022-11-29T18:05:34.335Z,12.87
2022-11-29T18:09:37.488Z,17.53
2022-11-29T18:13:41.563Z,14.60
2022-11-29T18:17:44.268Z,15.67
2022-11-29T18:21:47.085Z,11.53
2022-11-29T18:25:56.710Z,13.33
2022-11-29T18:30:00.754Z,17.13
2022-11-29T18:34:06.852Z,22.43
2022-11-29T18:38:17.109Z,24.40
2022-11-29T18:42:19.797Z,14.97
2022-11-29T18:46:24.751Z,13.00
2022-11-29T18:50:27.474Z,11.47
2022-11-29T18:54:30.984Z,16.00
2022-11-29T18:58:34.346Z,18.77
2022-11-29T19:02:38.388Z,43.23
2022-11-29T19:06:41.389Z,36.87
2022-11-29T19:10:44.694Z,12.70
2022-11-29T19:14:50.044Z,13.53
2022-11-29T19:18:57.157Z,14.23
2022-11-29T19:23:00.761Z,11.27
2022-11-29T19:27:04.643Z,10.37
2022-11-29T19:31:07.833Z,11.13
2022-11-29T19:35:11.925Z,11.60
2022-11-29T19:39:15.772Z,12.63
2022-11-29T19:43:18.691Z,12.17
2022-11-29T19:47:21.703Z,11.63
2022-11-29T19:51:27.125Z,12.10
2022-11-29T19:55:29.835Z,14.67
2022-11-29T19:59:33.354Z,18.77
2022-11-29T20:03:36.475Z,34.17
2022-11-29T20:07:40.662Z,35.93
2022-11-29T20:11:43.889Z,16.77
2022-11-29T20:15:46.867Z,13.80
2022-11-29T20:19:49.951Z,12.50
2022-11-29T20:23:57.527Z,12.97
2022-11-29T20:28:00.227Z,14.43
2022-11-29T20:32:02.974Z,12.13
2022-11-29T20:36:12.733Z,12.93
2022-11-29T20:40:18.331Z,12.50
2022-11-29T20:44:22.893Z,11.60
2022-11-29T20:48:25.919Z,12.27
2022-11-29T20:52:35.050Z,11.87
2022-11-29T20:56:42.222Z,14.30
2022-11-29T21:00:44.968Z,12.43
2022-11-29T21:04:47.976Z,13.20
2022-11-29T21:08:51.152Z,14.60
2022-11-29T21:12:56.101Z,12.67
2022-11-29T21:16:59.428Z,12.00
2022-11-29T21:21:15.374Z,13.73
2022-11-29T21:25:23.018Z,14.33
2022-11-29T21:29:27.728Z,14.13
2022-11-29T21:33:31.097Z,12.70
2022-11-29T21:37:33.783Z,11.83
2022-11-29T21:41:36.494Z,12.70
2022-11-29T21:45:40.504Z,14.10
2022-11-29T21:49:43.283Z,13.87
2022-11-29T21:53:46.421Z,16.37
2022-11-29T21:57:49.070Z,15.47
2022-11-29T22:01:53.702Z,17.60
2022-11-29T22:06:02.239Z,16.67
2022-11-29T22:10:11.601Z,14.50
2022-11-29T22:14:18.407Z,13.17
2022-11-29T22:18:26.965Z,13.27
2022-11-29T22:22:30.139Z,14.17
2022-11-29T22:26:32.835Z,11.90
2022-11-29T22:30:35.818Z,13.40
2022-11-29T22:34:40.228Z,14.50
2022-11-29T22:38:43.172Z,15.10
2022-11-29T22:42:45.821Z,15.37
2022-11-29T22:46:48.600Z,14.60
2022-11-29T22:50:52.623Z,13.33
2022-11-29T22:54:58.699Z,13.47
2022-11-29T22:59:04.139Z,12.77
2022-11-29T23:03:07.090Z,12.63
2022-11-29T23:07:11.065Z,14.33
2022-11-29T23:11:15.490Z,11.50
2022-11-29T23:15:18.155Z,13.37
2022-11-29T23:19:20.793Z,16.40
2022-11-29T23:23:24.813Z,12.10
2022-11-29T23:27:27.765Z,11.23
2022-11-29T23:31:30.489Z,12.50
2022-11-29T23:35:33.166Z,10.17
2022-11-29T23:39:37.163Z,10.30
2022-11-29T23:43:41.341Z,10.83
2022-11-29T23:47:44.002Z,10.37
2022-11-29T23:51:46.938Z,11.27
2022-11-29T23:55:58.517Z,10.33
